Time;durP1;ratioP1;P1;durP2;ratioP2;P2;SDS_P1;SDS_P2;PMS_P1;PMS_P2;Temp;Humidity;BMP_temperature;BMP_pressure;BME280_temperature;BME280_humidity;BME280_pressure;Samples;Min_cycle;Max_cycle;Signal;HPM_P1;HPM_P2
2024/01/23 00:01:11;;;;;;;18.58;2.30;;;8.50;99.90;;;;;;5001639;28;20128;-78
2024/01/23 00:03:37;;;;;;;24.13;2.58;;;8.50;99.90;;;;;;5002519;28;20463;-78
2024/01/23 00:06:03;;;;;;;18.63;2.78;;;8.50;99.90;;;;;;5002897;28;20033;-78
2024/01/23 00:08:29;;;;;;;27.27;3.05;;;8.50;99.90;;;;;;5002211;28;20034;-78
2024/01/23 00:10:56;;;;;;;23.42;2.78;;;8.50;99.90;;;;;;5002226;28;20470;-79
2024/01/23 00:13:22;;;;;;;19.08;2.90;;;8.40;99.90;;;;;;5001905;28;20084;-79
2024/01/23 00:15:47;;;;;;;22.50;3.45;;;8.40;99.90;;;;;;5002570;28;20025;-78
2024/01/23 00:18:13;;;;;;;24.13;3.13;;;8.40;99.90;;;;;;4982219;28;20065;-78
2024/01/23 00:20:39;;;;;;;22.10;2.92;;;8.40;99.90;;;;;;4998974;28;20038;-78
2024/01/23 00:23:05;;;;;;;18.67;2.67;;;8.40;99.90;;;;;;4997925;28;20552;-79
2024/01/23 00:25:30;;;;;;;24.17;2.83;;;8.40;99.90;;;;;;4997037;28;20030;-78
2024/01/23 00:27:56;;;;;;;20.30;3.03;;;8.40;99.90;;;;;;4979343;28;20026;-78
2024/01/23 00:30:21;;;;;;;21.63;3.15;;;8.40;99.90;;;;;;4995407;28;20497;-78
2024/01/23 00:32:47;;;;;;;27.60;3.22;;;8.30;99.90;;;;;;4979425;28;20038;-79
2024/01/23 00:35:13;;;;;;;24.58;3.78;;;8.30;99.90;;;;;;4979292;28;20463;-78
2024/01/23 00:37:38;;;;;;;24.30;3.65;;;8.30;99.90;;;;;;4963183;28;20031;-78
2024/01/23 00:40:05;;;;;;;21.80;3.17;;;8.30;99.90;;;;;;4979342;28;20073;-78
2024/01/23 00:42:31;;;;;;;29.17;3.53;;;8.30;99.90;;;;;;4996406;28;20088;-79
2024/01/23 00:44:56;;;;;;;26.92;3.67;;;8.30;99.90;;;;;;4995277;28;20023;-78
2024/01/23 00:47:22;;;;;;;28.35;3.50;;;8.30;99.90;;;;;;4995501;28;20113;-79
2024/01/23 00:49:47;;;;;;;28.95;4.18;;;8.30;99.90;;;;;;4979757;28;20463;-79
2024/01/23 00:52:13;;;;;;;21.90;3.33;;;8.20;99.90;;;;;;4979179;28;20411;-78
2024/01/23 00:54:39;;;;;;;27.85;3.45;;;8.30;99.90;;;;;;4978776;28;20069;-78
2024/01/23 00:57:05;;;;;;;25.20;3.25;;;8.30;99.90;;;;;;4979099;28;20034;-79
2024/01/23 00:59:31;;;;;;;28.98;4.10;;;8.30;99.90;;;;;;4996424;28;20088;-78
2024/01/23 01:01:57;;;;;;;24.92;3.53;;;8.40;99.90;;;;;;4979404;28;20038;-80
2024/01/23 01:04:23;;;;;;;30.02;3.88;;;8.30;99.90;;;;;;4995293;28;20069;-78
2024/01/23 01:06:48;;;;;;;28.65;3.58;;;8.30;99.90;;;;;;4979631;28;20040;-79
2024/01/23 01:09:14;;;;;;;31.63;3.65;;;8.30;99.90;;;;;;4994920;28;20120;-78
2024/01/23 01:11:40;;;;;;;23.73;3.28;;;8.30;99.90;;;;;;4995289;28;20046;-80
2024/01/23 01:14:05;;;;;;;27.52;3.50;;;8.30;99.90;;;;;;4979357;28;20426;-79
2024/01/23 01:16:32;;;;;;;31.38;3.90;;;8.40;99.90;;;;;;4994804;28;20057;-79
2024/01/23 01:18:58;;;;;;;30.80;3.35;;;8.40;99.90;;;;;;4978547;28;20046;-79
2024/01/23 01:21:24;;;;;;;30.88;3.95;;;8.40;99.90;;;;;;4994893;28;20035;-78
2024/01/23 01:23:50;;;;;;;26.10;3.60;;;8.40;99.90;;;;;;4996052;28;20026;-79
2024/01/23 01:26:16;;;;;;;40.03;4.05;;;8.40;99.90;;;;;;4978515;28;20038;-79
2024/01/23 01:28:41;;;;;;;21.05;3.03;;;8.40;99.90;;;;;;4978882;28;20121;-79
2024/01/23 01:31:07;;;;;;;21.58;3.08;;;8.40;99.90;;;;;;4978894;28;20101;-79
2024/01/23 01:33:33;;;;;;;29.27;3.97;;;8.40;99.90;;;;;;4978783;28;20030;-79
2024/01/23 01:35:58;;;;;;;24.20;3.38;;;8.40;99.90;;;;;;4993431;28;20029;-80
2024/01/23 01:38:24;;;;;;;29.08;4.20;;;8.40;99.90;;;;;;4994922;28;20026;-79
2024/01/23 01:40:50;;;;;;;25.77;3.67;;;8.30;99.90;;;;;;4978838;28;20034;-79
2024/01/23 01:43:25;;;;;;;30.95;4.57;;;8.30;99.90;;;;;;4977953;28;20031;-79
2024/01/23 01:46:10;;;;;;;32.60;4.53;;;8.30;99.90;;;;;;4995527;28;20098;-79
2024/01/23 01:48:36;;;;;;;25.70;3.55;;;8.30;99.90;;;;;;4994925;28;20022;-79
2024/01/23 01:51:01;;;;;;;28.13;2.88;;;8.20;99.90;;;;;;4977985;28;20113;-80
2024/01/23 01:53:27;;;;;;;21.40;2.67;;;8.20;99.90;;;;;;4994171;28;20543;-78
2024/01/23 01:55:53;;;;;;;22.52;3.10;;;8.20;99.90;;;;;;4977803;28;20041;-78
2024/01/23 01:58:22;;;;;;;25.45;3.42;;;8.20;99.90;;;;;;4977900;28;20026;-80
2024/01/23 02:00:50;;;;;;;23.42;3.17;;;8.20;99.90;;;;;;4995232;28;20054;-79
2024/01/23 02:03:17;;;;;;;21.75;3.42;;;8.20;99.90;;;;;;4962767;28;20050;-80
2024/01/23 02:05:43;;;;;;;20.95;3.13;;;8.20;99.90;;;;;;4995522;28;20062;-77
2024/01/23 02:08:09;;;;;;;24.13;3.03;;;8.20;99.90;;;;;;4994866;28;20055;-79
2024/01/23 02:10:34;;;;;;;22.30;3.00;;;8.20;99.90;;;;;;4995087;28;20054;-79
2024/01/23 02:13:00;;;;;;;27.48;3.15;;;8.20;99.90;;;;;;4978100;28;20062;-78
2024/01/23 02:15:26;;;;;;;25.75;2.55;;;8.20;99.90;;;;;;4993614;28;20109;-79
2024/01/23 02:17:51;;;;;;;25.88;3.83;;;8.20;99.90;;;;;;4993478;28;20096;-79
2024/01/23 02:20:17;;;;;;;20.77;3.20;;;8.20;99.90;;;;;;4993772;28;20101;-79
2024/01/23 02:22:43;;;;;;;22.23;2.75;;;8.20;99.90;;;;;;4977605;28;20455;-78
2024/01/23 02:25:08;;;;;;;20.15;2.72;;;8.10;99.90;;;;;;4994456;28;20104;-76
2024/01/23 02:27:34;;;;;;;23.58;3.28;;;8.10;99.90;;;;;;4977128;28;20061;-77
2024/01/23 02:30:00;;;;;;;20.15;2.83;;;8.00;99.90;;;;;;4961372;28;20041;-79
2024/01/23 02:32:25;;;;;;;24.73;3.00;;;8.00;99.90;;;;;;4977460;28;20084;-78
2024/01/23 02:34:51;;;;;;;18.60;3.17;;;7.90;99.90;;;;;;4961766;28;20134;-79
2024/01/23 02:37:17;;;;;;;21.27;3.03;;;7.90;99.90;;;;;;4961297;28;20181;-79
2024/01/23 02:39:42;;;;;;;26.73;3.38;;;7.90;99.90;;;;;;4993994;28;20034;-78
2024/01/23 02:42:09;;;;;;;18.13;3.58;;;7.90;99.90;;;;;;4993465;28;20061;-78
2024/01/23 02:44:36;;;;;;;31.48;4.38;;;7.90;99.90;;;;;;4993249;28;20034;-79
2024/01/23 02:47:01;;;;;;;25.98;3.67;;;7.80;99.90;;;;;;4976856;28;20034;-78
2024/01/23 02:49:27;;;;;;;36.22;4.38;;;7.80;99.90;;;;;;4992814;28;20037;-78
2024/01/23 02:51:53;;;;;;;23.13;3.50;;;7.70;99.90;;;;;;4977091;28;20035;-78
2024/01/23 02:54:18;;;;;;;28.30;3.47;;;7.70;99.90;;;;;;4994467;28;20035;-78
2024/01/23 02:56:44;;;;;;;26.33;3.25;;;7.70;99.90;;;;;;4960658;28;20392;-78
2024/01/23 02:59:10;;;;;;;30.05;3.70;;;7.70;99.90;;;;;;4993245;28;20533;-78
2024/01/23 03:01:35;;;;;;;28.63;3.65;;;7.70;99.90;;;;;;4993467;28;20030;-78
2024/01/23 03:04:01;;;;;;;25.20;3.53;;;7.70;99.90;;;;;;4993121;28;20426;-78
2024/01/23 03:06:27;;;;;;;25.52;3.53;;;7.70;99.90;;;;;;4993717;28;20046;-77
2024/01/23 03:08:52;;;;;;;30.67;4.50;;;7.70;99.90;;;;;;4977363;28;20481;-79
2024/01/23 03:11:18;;;;;;;29.13;3.83;;;7.70;99.90;;;;;;4994477;28;20518;-79
2024/01/23 03:13:44;;;;;;;33.03;3.53;;;7.70;99.90;;;;;;4977531;28;20038;-78
2024/01/23 03:16:09;;;;;;;24.92;3.97;;;7.70;99.90;;;;;;4993645;28;20031;-78
2024/01/23 03:18:35;;;;;;;26.80;3.08;;;7.70;99.90;;;;;;4996494;28;20060;-77
2024/01/23 03:21:01;;;;;;;25.20;3.90;;;7.70;99.90;;;;;;5013739;28;20033;-77
2024/01/23 03:23:26;;;;;;;29.50;3.42;;;7.70;99.90;;;;;;4995787;28;20030;-80
2024/01/23 03:25:52;;;;;;;24.90;3.25;;;7.80;99.90;;;;;;4979707;28;20060;-80
2024/01/23 03:28:18;;;;;;;28.95;3.58;;;7.80;99.90;;;;;;4964546;28;20085;-79
2024/01/23 03:30:43;;;;;;;30.10;3.65;;;7.70;99.90;;;;;;5013585;28;20037;-80
2024/01/23 03:33:09;;;;;;;24.42;4.00;;;7.70;99.90;;;;;;4979841;28;20041;-78
2024/01/23 03:35:35;;;;;;;28.50;3.63;;;7.80;99.90;;;;;;4979904;28;20065;-79
2024/01/23 03:38:00;;;;;;;29.63;3.92;;;7.80;99.90;;;;;;4995847;28;20470;-78
2024/01/23 03:40:26;;;;;;;25.67;3.60;;;7.80;99.90;;;;;;5013590;28;20037;-79
2024/01/23 03:42:51;;;;;;;21.25;3.47;;;7.80;99.90;;;;;;4963979;28;20036;-78
2024/01/23 03:45:17;;;;;;;25.20;3.38;;;7.80;99.90;;;;;;5013281;28;20030;-79
2024/01/23 03:47:43;;;;;;;24.88;3.50;;;7.80;99.90;;;;;;5013737;28;20030;-79
2024/01/23 03:50:08;;;;;;;28.30;5.03;;;7.80;99.90;;;;;;5013468;28;20030;-79
2024/01/23 03:52:36;;;;;;;27.77;3.90;;;7.80;99.90;;;;;;5013507;28;20084;-78
2024/01/23 03:55:02;;;;;;;23.73;3.60;;;7.80;99.90;;;;;;4979591;28;20116;-80
2024/01/23 03:57:28;;;;;;;26.98;4.00;;;7.80;99.90;;;;;;4995543;28;20113;-79
2024/01/23 03:59:54;;;;;;;21.95;3.00;;;7.80;99.90;;;;;;5016937;28;20069;-78
2024/01/23 04:02:22;;;;;;;23.23;3.17;;;7.80;99.90;;;;;;4999327;28;20468;-78
2024/01/23 04:04:48;;;;;;;24.30;3.17;;;7.80;99.90;;;;;;4999078;28;20080;-78
2024/01/23 04:07:14;;;;;;;27.52;3.50;;;7.80;99.90;;;;;;4999265;28;20030;-79
2024/01/23 04:09:39;;;;;;;25.77;3.30;;;7.80;99.90;;;;;;4967069;28;20026;-79
2024/01/23 04:12:05;;;;;;;22.92;2.78;;;7.80;99.90;;;;;;4966945;28;20496;-79
2024/01/23 04:14:31;;;;;;;21.88;3.17;;;7.80;99.90;;;;;;4966926;28;20542;-79
2024/01/23 04:16:56;;;;;;;30.20;4.80;;;7.80;99.90;;;;;;4998901;28;20061;-79
2024/01/23 04:19:22;;;;;;;22.77;3.55;;;7.80;99.90;;;;;;4999183;28;20034;-79
2024/01/23 04:21:47;;;;;;;22.13;3.13;;;7.80;99.90;;;;;;5016737;28;20030;-80
2024/01/23 04:24:13;;;;;;;27.02;3.53;;;7.80;99.90;;;;;;4999186;28;20103;-79
2024/01/23 04:26:45;;;;;;;21.98;3.60;;;7.80;99.90;;;;;;5016650;28;20494;-79
2024/01/23 04:29:11;;;;;;;26.00;3.75;;;7.80;99.90;;;;;;5016853;28;20072;-79
2024/01/23 04:31:37;;;;;;;25.30;3.05;;;7.80;99.90;;;;;;4998962;28;20119;-79
2024/01/23 04:34:02;;;;;;;26.52;3.55;;;7.80;99.90;;;;;;4966652;28;20475;-79
2024/01/23 04:36:28;;;;;;;23.65;3.25;;;7.70;99.90;;;;;;5016052;28;20364;-79
2024/01/23 04:38:54;;;;;;;26.42;3.58;;;7.70;99.90;;;;;;5016158;28;20034;-79
2024/01/23 04:41:19;;;;;;;26.33;2.58;;;7.70;99.90;;;;;;5016695;28;20136;-79
2024/01/23 04:43:45;;;;;;;26.70;3.97;;;7.70;99.90;;;;;;4982162;28;20042;-79
2024/01/23 04:46:11;;;;;;;24.10;3.20;;;7.70;99.90;;;;;;4998435;28;20036;-79
2024/01/23 04:48:37;;;;;;;23.27;3.28;;;7.70;99.90;;;;;;4998417;28;20033;-79
2024/01/23 04:51:02;;;;;;;25.75;4.28;;;7.70;99.90;;;;;;5016429;28;20034;-80
2024/01/23 04:53:32;;;;;;;25.75;3.72;;;7.70;99.90;;;;;;4998281;28;20033;-79
2024/01/23 04:55:58;;;;;;;28.73;3.97;;;7.70;99.90;;;;;;5016109;28;20030;-79
2024/01/23 04:58:23;;;;;;;27.75;3.45;;;7.70;99.90;;;;;;4998792;28;20038;-80
2024/01/23 05:00:49;;;;;;;23.02;3.20;;;7.60;99.90;;;;;;4982365;28;20120;-79
2024/01/23 05:03:15;;;;;;;28.58;4.13;;;7.70;99.90;;;;;;4998336;28;20041;-79
2024/01/23 05:05:40;;;;;;;25.52;3.72;;;7.60;99.90;;;;;;4998004;28;20029;-79
2024/01/23 05:08:06;;;;;;;20.05;3.42;;;7.60;99.90;;;;;;4982193;28;20022;-80
2024/01/23 05:10:32;;;;;;;28.75;3.78;;;7.60;99.90;;;;;;4981687;28;20038;-79
2024/01/23 05:12:58;;;;;;;26.25;3.50;;;7.60;99.90;;;;;;4998275;28;20030;-80
2024/01/23 05:15:26;;;;;;;26.00;3.25;;;7.60;99.90;;;;;;4966630;28;20089;-79
2024/01/23 05:17:53;;;;;;;32.70;3.72;;;7.60;99.90;;;;;;5015148;28;20057;-79
2024/01/23 05:20:19;;;;;;;23.63;3.00;;;7.60;99.90;;;;;;4998006;28;20102;-79
2024/01/23 05:22:45;;;;;;;26.30;3.15;;;7.60;99.90;;;;;;4966683;28;20041;-79
2024/01/23 05:25:11;;;;;;;23.23;2.80;;;7.60;99.90;;;;;;4981866;28;20124;-79
2024/01/23 05:27:36;;;;;;;31.40;3.53;;;7.60;99.90;;;;;;4982259;28;20537;-79
2024/01/23 05:30:05;;;;;;;19.25;2.80;;;7.60;99.90;;;;;;4997475;28;20038;-80
2024/01/23 05:32:30;;;;;;;29.30;4.30;;;7.60;99.90;;;;;;4997960;28;20463;-78
2024/01/23 05:34:56;;;;;;;28.70;3.97;;;7.60;99.90;;;;;;5015519;28;20068;-78
2024/01/23 05:37:22;;;;;;;25.92;3.85;;;7.60;99.90;;;;;;4997950;28;20030;-78
2024/01/23 05:39:47;;;;;;;20.70;2.72;;;7.60;99.90;;;;;;4997312;28;20508;-79
2024/01/23 05:42:13;;;;;;;24.02;3.50;;;7.70;99.90;;;;;;5015706;28;20030;-77
2024/01/23 05:44:39;;;;;;;25.05;3.42;;;7.70;99.90;;;;;;4997533;28;20029;-79
2024/01/23 05:47:05;;;;;;;26.65;3.10;;;7.70;99.90;;;;;;5015288;28;20030;-80
2024/01/23 05:49:31;;;;;;;25.88;3.45;;;7.70;99.90;;;;;;4997946;28;20125;-79
2024/01/23 05:51:57;;;;;;;21.20;2.92;;;7.70;99.90;;;;;;5015703;28;20091;-80
2024/01/23 05:54:23;;;;;;;21.60;2.65;;;7.70;99.90;;;;;;4981593;28;20025;-80
2024/01/23 05:56:49;;;;;;;29.25;3.95;;;7.80;99.90;;;;;;4997760;28;20073;-81
2024/01/23 05:59:15;;;;;;;33.10;3.63;;;7.70;99.90;;;;;;4981088;28;20478;-79
2024/01/23 06:01:41;;;;;;;22.77;3.25;;;7.80;99.90;;;;;;4997338;28;20049;-78
2024/01/23 06:04:08;;;;;;;28.73;4.47;;;7.80;99.90;;;;;;4997100;28;20058;-78
2024/01/23 06:06:39;;;;;;;23.33;3.17;;;7.80;99.90;;;;;;5015362;28;20530;-74
2024/01/23 06:09:05;;;;;;;23.73;3.15;;;7.70;99.90;;;;;;5015086;28;20037;-76
2024/01/23 06:11:30;;;;;;;25.48;3.67;;;7.70;99.90;;;;;;5014736;28;20485;-76
2024/01/23 06:13:56;;;;;;;25.15;3.40;;;7.70;99.90;;;;;;4996752;28;20034;-79
2024/01/23 06:16:21;;;;;;;25.95;3.42;;;7.70;99.90;;;;;;4996789;28;20030;-78
2024/01/23 06:18:47;;;;;;;19.25;2.83;;;7.70;99.90;;;;;;4996870;28;20053;-78
2024/01/23 06:21:13;;;;;;;21.10;3.63;;;7.70;99.90;;;;;;4963997;28;20378;-80
2024/01/23 06:23:38;;;;;;;27.15;3.50;;;7.70;99.90;;;;;;4996993;28;20030;-80
2024/01/23 06:26:04;;;;;;;25.05;3.35;;;7.60;99.90;;;;;;4981299;28;20438;-81
2024/01/23 06:28:29;;;;;;;23.52;2.92;;;7.60;99.90;;;;;;4965038;28;20134;-81
2024/01/23 06:30:55;;;;;;;23.27;3.30;;;7.60;99.90;;;;;;4996796;28;20124;-81
2024/01/23 06:33:21;;;;;;;20.63;2.75;;;7.60;99.90;;;;;;4981008;28;20129;-82
2024/01/23 06:35:47;;;;;;;23.42;3.60;;;7.60;99.90;;;;;;4996837;28;20500;-81
2024/01/23 06:38:12;;;;;;;22.35;2.50;;;7.60;99.90;;;;;;5014383;28;20034;-80
2024/01/23 06:40:38;;;;;;;25.75;3.42;;;7.60;99.90;;;;;;4997888;28;20030;-80
2024/01/23 06:43:03;;;;;;;17.92;3.15;;;7.70;99.90;;;;;;4998293;28;20351;-80
2024/01/23 06:45:29;;;;;;;20.60;2.55;;;7.70;99.90;;;;;;4966555;28;20366;-80
2024/01/23 06:47:55;;;;;;;20.90;2.97;;;7.70;99.90;;;;;;5015733;28;20129;-79
2024/01/23 06:50:20;;;;;;;33.38;3.20;;;7.70;99.90;;;;;;4998125;28;20084;-80
2024/01/23 06:52:46;;;;;;;22.83;3.13;;;7.70;99.90;;;;;;4997928;28;20038;-80
2024/01/23 06:55:12;;;;;;;23.88;3.38;;;7.70;99.90;;;;;;4999324;28;20044;-80
2024/01/23 06:57:37;;;;;;;21.10;3.38;;;7.70;99.90;;;;;;4966517;28;20037;-80
2024/01/23 07:00:03;;;;;;;23.63;2.97;;;7.70;99.90;;;;;;4998204;28;20037;-80
2024/01/23 07:02:29;;;;;;;24.67;2.80;;;7.70;99.90;;;;;;4998215;28;20034;-79
2024/01/23 07:04:54;;;;;;;25.45;3.58;;;7.70;99.90;;;;;;5015621;28;20029;-80
2024/01/23 07:07:20;;;;;;;27.73;3.58;;;7.70;99.90;;;;;;4997124;28;20026;-81
2024/01/23 07:09:46;;;;;;;21.55;3.75;;;7.60;99.90;;;;;;4996946;28;20033;-80
2024/01/23 07:12:11;;;;;;;28.42;3.90;;;7.70;99.90;;;;;;4980634;28;20065;-83
2024/01/23 07:14:37;;;;;;;24.92;2.53;;;7.70;99.90;;;;;;4996396;28;20084;-82
2024/01/23 07:17:03;;;;;;;25.40;3.42;;;7.70;99.90;;;;;;4992872;28;20046;-82
2024/01/23 07:19:28;;;;;;;26.20;3.60;;;7.70;99.90;;;;;;4993016;28;20041;-82
2024/01/23 07:21:54;;;;;;;30.73;3.55;;;7.70;99.90;;;;;;4994618;28;20030;-83
2024/01/23 07:24:20;;;;;;;27.80;4.07;;;7.70;99.90;;;;;;4996265;28;20038;-82
2024/01/23 07:26:45;;;;;;;23.15;3.35;;;7.70;99.90;;;;;;4977467;28;20031;-82
2024/01/23 07:29:11;;;;;;;22.98;2.80;;;7.60;99.90;;;;;;4994180;28;20357;-82
2024/01/23 07:31:39;;;;;;;27.83;3.95;;;7.60;99.90;;;;;;4992695;28;20042;-81
2024/01/23 07:34:04;;;;;;;32.60;3.72;;;7.50;99.90;;;;;;4996732;28;20026;-82
2024/01/23 07:36:30;;;;;;;18.15;2.92;;;7.50;99.90;;;;;;4996459;28;20027;-81
2024/01/23 07:38:56;;;;;;;22.88;3.50;;;7.50;99.90;;;;;;4980522;28;20038;-81
2024/01/23 07:41:22;;;;;;;24.55;3.10;;;7.50;99.90;;;;;;4997220;28;20038;-79
2024/01/23 07:43:47;;;;;;;21.20;3.40;;;7.50;99.90;;;;;;5000634;28;20030;-80
2024/01/23 07:46:13;;;;;;;23.55;3.63;;;7.50;99.90;;;;;;4980667;28;20108;-74
2024/01/23 07:48:39;;;;;;;19.65;3.08;;;7.60;99.90;;;;;;4980362;28;20032;-74
2024/01/23 07:51:05;;;;;;;28.05;3.25;;;7.60;99.90;;;;;;4997632;28;20038;-74
2024/01/23 07:53:32;;;;;;;28.05;3.40;;;7.60;99.90;;;;;;4996222;28;20041;-75
2024/01/23 07:55:57;;;;;;;31.55;5.20;;;7.50;99.90;;;;;;4997967;28;20035;-75
2024/01/23 07:58:23;;;;;;;28.58;3.22;;;7.50;99.90;;;;;;4997554;28;20104;-74
2024/01/23 08:00:49;;;;;;;30.27;3.42;;;7.50;99.90;;;;;;4997556;28;20065;-73
2024/01/23 08:03:14;;;;;;;34.53;4.75;;;7.40;99.90;;;;;;4996214;28;20118;-74
2024/01/23 08:05:40;;;;;;;22.33;3.25;;;7.40;99.90;;;;;;4996118;28;20041;-74
2024/01/23 08:08:06;;;;;;;25.13;4.03;;;7.30;99.90;;;;;;4998086;28;20037;-75
2024/01/23 08:10:34;;;;;;;31.83;3.90;;;7.40;99.90;;;;;;4997262;28;20471;-75
2024/01/23 08:13:00;;;;;;;24.05;3.13;;;7.40;99.90;;;;;;4998113;28;20081;-74
2024/01/23 08:15:25;;;;;;;24.45;2.88;;;7.50;99.90;;;;;;4997758;28;20061;-76
2024/01/23 08:17:51;;;;;;;30.25;3.90;;;7.50;99.90;;;;;;5008852;28;20391;-75
2024/01/23 08:20:18;;;;;;;28.38;3.10;;;7.50;99.90;;;;;;5016687;28;20156;-75
2024/01/23 08:22:44;;;;;;;24.80;3.40;;;7.50;99.90;;;;;;5017496;28;20535;-80
2024/01/23 08:25:09;;;;;;;29.63;3.78;;;7.50;99.90;;;;;;4999872;28;20121;-81
2024/01/23 08:27:35;;;;;;;25.92;2.90;;;7.60;99.90;;;;;;5000085;28;20029;-81
2024/01/23 08:30:01;;;;;;;22.08;3.00;;;7.60;99.90;;;;;;4982776;28;20041;-80
2024/01/23 08:32:27;;;;;;;27.70;4.07;;;7.60;99.90;;;;;;4999056;28;20037;-80
2024/01/23 08:34:52;;;;;;;32.58;4.10;;;7.70;99.90;;;;;;4982906;28;20030;-80
2024/01/23 08:37:18;;;;;;;28.40;3.70;;;7.70;99.90;;;;;;4999146;28;20160;-80
2024/01/23 08:39:44;;;;;;;23.52;3.15;;;7.80;99.90;;;;;;4983283;28;20034;-80
2024/01/23 08:42:09;;;;;;;20.80;2.92;;;7.80;99.90;;;;;;5016442;28;20053;-80
2024/01/23 08:44:40;;;;;;;30.52;4.07;;;7.90;99.90;;;;;;4982535;28;20065;-82
2024/01/23 08:47:06;;;;;;;31.20;4.28;;;7.90;99.90;;;;;;4984208;28;20116;-81
2024/01/23 08:49:31;;;;;;;27.00;3.67;;;7.90;99.90;;;;;;4998696;28;20061;-81
2024/01/23 08:51:57;;;;;;;26.88;3.85;;;7.90;99.90;;;;;;5016073;28;20044;-80
2024/01/23 08:54:23;;;;;;;24.23;3.10;;;7.90;99.90;;;;;;4998732;28;20037;-80
2024/01/23 08:56:55;;;;;;;25.23;3.67;;;7.90;99.90;;;;;;5016676;28;20109;-82
2024/01/23 08:59:21;;;;;;;28.95;3.05;;;7.90;99.90;;;;;;5000625;28;20500;-81
2024/01/23 09:01:47;;;;;;;24.65;4.00;;;7.90;99.90;;;;;;4982828;28;20057;-81
2024/01/23 09:04:13;;;;;;;28.40;3.65;;;7.80;99.90;;;;;;4982384;28;20030;-79
2024/01/23 09:06:38;;;;;;;24.27;3.55;;;7.80;99.90;;;;;;4998685;28;20096;-80
2024/01/23 09:09:04;;;;;;;24.35;3.78;;;7.90;99.90;;;;;;4999432;28;20038;-78
2024/01/23 09:11:29;;;;;;;25.92;3.38;;;7.90;99.90;;;;;;4998908;28;20037;-79
2024/01/23 09:13:55;;;;;;;27.00;3.78;;;7.90;99.90;;;;;;5015994;28;20079;-80
2024/01/23 09:16:21;;;;;;;26.40;3.50;;;8.00;99.90;;;;;;5016201;28;20487;-79
2024/01/23 09:18:48;;;;;;;31.33;4.28;;;8.10;99.90;;;;;;5018174;28;20054;-81
2024/01/23 09:21:14;;;;;;;22.75;3.38;;;8.10;99.90;;;;;;4998363;28;20034;-82
2024/01/23 09:23:40;;;;;;;27.60;3.70;;;8.10;99.90;;;;;;4998863;28;20037;-82
2024/01/23 09:26:06;;;;;;;22.42;3.78;;;8.20;99.90;;;;;;5016105;28;20034;-82
2024/01/23 09:28:32;;;;;;;31.67;3.72;;;8.20;99.90;;;;;;4998615;28;20038;-81
2024/01/23 09:30:57;;;;;;;21.77;3.53;;;8.20;99.90;;;;;;4998844;28;20035;-81
2024/01/23 09:33:23;;;;;;;25.98;3.78;;;8.30;99.90;;;;;;5016207;28;20037;-82
2024/01/23 09:35:49;;;;;;;30.67;4.43;;;8.30;99.90;;;;;;4998143;28;20041;-81
2024/01/23 09:38:14;;;;;;;33.83;3.88;;;8.30;99.90;;;;;;5015826;28;20053;-81
2024/01/23 09:40:48;;;;;;;29.20;4.20;;;8.30;99.90;;;;;;5015811;28;20056;-82
2024/01/23 09:43:17;;;;;;;27.98;4.38;;;8.30;99.90;;;;;;4998976;28;20088;-82
2024/01/23 09:45:43;;;;;;;26.75;4.05;;;8.30;99.90;;;;;;4998568;28;20026;-81
2024/01/23 09:48:09;;;;;;;26.05;3.40;;;8.40;99.90;;;;;;4999650;28;20041;-82
2024/01/23 09:50:38;;;;;;;26.67;3.53;;;8.50;99.90;;;;;;5016718;28;20381;-81
2024/01/23 09:53:05;;;;;;;30.88;4.72;;;8.60;99.90;;;;;;4998757;28;20458;-82
2024/01/23 09:55:30;;;;;;;21.38;3.33;;;8.60;99.90;;;;;;4982459;28;20064;-81
2024/01/23 09:57:58;;;;;;;26.77;4.00;;;8.70;99.90;;;;;;5016199;28;20378;-81
2024/01/23 10:00:24;;;;;;;28.73;3.85;;;8.70;99.90;;;;;;4998962;28;20026;-81
2024/01/23 10:02:49;;;;;;;28.30;3.55;;;8.70;99.90;;;;;;5016283;28;20538;-81
2024/01/23 10:05:16;;;;;;;24.23;3.95;;;8.70;99.90;;;;;;5015457;28;20125;-81
2024/01/23 10:07:42;;;;;;;24.90;4.20;;;8.70;99.90;;;;;;5014972;28;20022;-81
2024/01/23 10:10:16;;;;;;;25.20;3.80;;;8.70;99.90;;;;;;4997258;28;20474;-81
2024/01/23 10:12:45;;;;;;;25.73;3.60;;;8.80;99.90;;;;;;5015922;28;20026;-81
2024/01/23 10:15:12;;;;;;;31.40;4.15;;;8.90;99.90;;;;;;4998601;28;20041;-80
2024/01/23 10:17:39;;;;;;;24.77;3.75;;;8.90;99.90;;;;;;4998707;28;20084;-81
2024/01/23 10:20:06;;;;;;;27.85;3.92;;;9.00;99.90;;;;;;5015061;28;20030;-80
2024/01/23 10:22:33;;;;;;;32.58;5.05;;;8.90;99.90;;;;;;5014711;28;20022;-81
2024/01/23 10:24:59;;;;;;;37.15;4.85;;;9.00;99.90;;;;;;4997467;28;20120;-82
2024/01/23 10:27:28;;;;;;;26.55;4.35;;;9.00;99.90;;;;;;5015139;28;20076;-81
2024/01/23 10:29:54;;;;;;;25.25;4.82;;;9.00;99.90;;;;;;4997445;28;20037;-81
2024/01/23 10:32:25;;;;;;;27.38;4.30;;;9.10;99.90;;;;;;4997433;28;20042;-81
2024/01/23 10:34:54;;;;;;;26.35;3.90;;;9.10;99.90;;;;;;5014857;28;20041;-80
2024/01/23 10:37:21;;;;;;;28.27;4.38;;;9.10;99.90;;;;;;5015174;28;20030;-81
2024/01/23 10:39:49;;;;;;;30.88;3.55;;;9.20;99.90;;;;;;5015282;28;20033;-81
2024/01/23 10:42:18;;;;;;;28.23;4.30;;;9.30;99.90;;;;;;4981218;28;20087;-81
2024/01/23 10:44:54;;;;;;;30.00;3.45;;;9.40;99.90;;;;;;4997122;28;20038;-81
2024/01/23 10:47:20;;;;;;;25.95;3.72;;;9.40;99.90;;;;;;4996719;28;20057;-80
2024/01/23 10:49:46;;;;;;;18.63;3.50;;;9.50;99.90;;;;;;4996440;28;20033;-82
2024/01/23 10:52:19;;;;;;;32.88;3.95;;;9.50;99.90;;;;;;4980962;28;20034;-82
2024/01/23 10:54:46;;;;;;;32.25;4.88;;;9.50;99.90;;;;;;5014315;28;20458;-82
2024/01/23 10:57:24;;;;;;;28.30;4.53;;;9.50;99.90;;;;;;5015206;28;20350;-82
2024/01/23 10:59:50;;;;;;;25.67;3.47;;;9.50;99.90;;;;;;5014569;28;20351;-83
2024/01/23 11:02:42;;;;;;;31.60;4.20;;;9.50;99.90;;;;;;5016258;28;20096;-82
2024/01/23 11:05:08;;;;;;;24.95;3.75;;;9.40;99.90;;;;;;5015480;28;20037;-82
2024/01/23 11:07:57;;;;;;;29.60;3.58;;;9.40;99.90;;;;;;5013786;28;20034;-82
2024/01/23 11:10:42;;;;;;;28.77;3.42;;;9.50;99.90;;;;;;5014918;28;20180;-79
2024/01/23 11:13:28;;;;;;;21.98;3.60;;;9.50;99.90;;;;;;5014830;28;20034;-81
2024/01/23 11:15:53;;;;;;;32.20;4.05;;;9.50;99.90;;;;;;5015738;28;20079;-81
2024/01/23 11:18:25;;;;;;;33.97;5.07;;;9.40;99.90;;;;;;4976808;28;20129;-77
2024/01/23 11:21:09;;;;;;;28.15;4.63;;;9.40;99.90;;;;;;4994065;28;20050;-75
2024/01/23 11:23:39;;;;;;;29.20;3.85;;;9.30;99.90;;;;;;4994011;28;20027;-75
2024/01/23 11:26:22;;;;;;;30.00;3.83;;;9.30;99.90;;;;;;4994723;28;20390;-75
2024/01/23 11:28:59;;;;;;;28.23;4.22;;;9.30;99.90;;;;;;4992515;28;20463;-77
2024/01/23 11:31:26;;;;;;;30.48;5.53;;;9.30;99.90;;;;;;4993143;28;20110;-75
2024/01/23 11:34:13;;;;;;;31.23;4.68;;;9.30;99.90;;;;;;4994587;28;20395;-81
2024/01/23 11:36:39;;;;;;;25.80;4.60;;;9.30;99.90;;;;;;4994974;28;20030;-82
2024/01/23 11:39:14;;;;;;;28.50;4.63;;;9.40;99.90;;;;;;4994136;28;20038;-81
2024/01/23 11:41:48;;;;;;;30.30;4.93;;;9.40;99.90;;;;;;4994255;28;20057;-81
2024/01/23 11:44:15;;;;;;;23.70;3.92;;;9.40;99.90;;;;;;4993761;28;20466;-82
2024/01/23 11:46:43;;;;;;;31.27;5.32;;;9.60;99.90;;;;;;4993276;28;20474;-82
2024/01/23 11:49:10;;;;;;;19.48;3.67;;;9.60;99.90;;;;;;4995630;28;20035;-81
2024/01/23 11:51:37;;;;;;;24.38;3.45;;;9.70;99.90;;;;;;4995852;28;20030;-79
2024/01/23 11:54:09;;;;;;;24.73;3.47;;;9.80;99.90;;;;;;4996344;28;20038;-79
2024/01/23 11:56:36;;;;;;;31.52;4.43;;;9.80;99.90;;;;;;4995030;28;20027;-80
2024/01/23 11:59:02;;;;;;;26.92;3.45;;;9.80;99.90;;;;;;4962370;28;20030;-82
2024/01/23 12:01:30;;;;;;;26.95;4.57;;;9.80;99.90;;;;;;4995710;28;20030;-82
2024/01/23 12:03:56;;;;;;;24.95;4.00;;;9.80;99.90;;;;;;4995480;28;20031;-81
2024/01/23 12:06:23;;;;;;;30.80;4.05;;;9.80;99.90;;;;;;4994237;28;20027;-82
2024/01/23 12:08:49;;;;;;;24.17;3.75;;;9.70;99.90;;;;;;4995276;28;20077;-79
2024/01/23 12:11:18;;;;;;;33.45;4.40;;;9.60;99.90;;;;;;4992724;28;20497;-79
2024/01/23 12:13:45;;;;;;;25.05;4.43;;;9.60;99.90;;;;;;4997797;28;20109;-80
2024/01/23 12:16:12;;;;;;;34.10;4.25;;;9.60;99.90;;;;;;4999804;28;20027;-82
2024/01/23 12:18:38;;;;;;;27.83;5.13;;;9.60;99.90;;;;;;4993362;28;20046;-81
2024/01/23 12:21:04;;;;;;;21.70;3.40;;;9.50;99.90;;;;;;5009134;28;20455;-81
2024/01/23 12:23:34;;;;;;;26.70;4.10;;;9.50;99.90;;;;;;5004437;28;20026;-80
2024/01/23 12:26:00;;;;;;;23.63;3.78;;;9.60;99.90;;;;;;5002187;28;20080;-80
2024/01/23 12:28:29;;;;;;;29.00;4.05;;;9.60;99.90;;;;;;5001964;28;20042;-81
2024/01/23 12:30:55;;;;;;;25.88;3.83;;;9.60;99.90;;;;;;5004345;28;20026;-80
2024/01/23 12:33:21;;;;;;;19.65;3.45;;;9.60;99.90;;;;;;5001899;28;20099;-82
2024/01/23 12:35:48;;;;;;;29.40;4.80;;;9.70;99.90;;;;;;5001637;28;20085;-81
2024/01/23 12:38:21;;;;;;;22.08;4.15;;;9.70;99.90;;;;;;4999741;28;20110;-81
2024/01/23 12:40:47;;;;;;;26.70;4.82;;;9.80;99.90;;;;;;4997680;28;20034;-81
2024/01/23 12:43:17;;;;;;;23.95;3.70;;;9.80;99.90;;;;;;4997358;28;20044;-81
2024/01/23 12:45:43;;;;;;;24.33;3.85;;;9.70;99.90;;;;;;4997688;28;20018;-82